Machagai, Argentina
Current Conditions -  °F | °C
As of 9:00 PM on Monday 22 Dec 2014 (Local Time) from SARE Reporting Station
Clear Clear  
Wind Chill: 20°   Ceiling: Unl
Heat Index: 20°   Visibility: 6mi
Dew Point: 13°   Wind: 2mph
Humidity: 64%   Direction: 180°S
Pressure: 30.06"   Gusts: NA
Location:  26.93°S, 60.05°W
Report Text: SARE 230000Z 18002KT CAVOK 20/13 Q1018
Loading
Personal Weather Stations






























Interactive Weather Map New forecast layout! Learn more

10-Day Weather Forecast

Advertisements
Track Severe Weather on mobile